Time;durP1;ratioP1;P1;durP2;ratioP2;P2;SDS_P1;SDS_P2;PMS_P1;PMS_P2;Temp;Humidity;BMP_temperature;BMP_pressure;BME280_temperature;BME280_humidity;BME280_pressure;Samples;Min_cycle;Max_cycle;Signal;HPM_P1;HPM_P2
2023/02/09 00:01:19;;;;;;;6.15;2.97;;;;;;;;;;5057988;28;20063;-64
2023/02/09 00:03:49;;;;;;;7.13;3.25;;;;;;;;;;5041971;28;20071;-64
2023/02/09 00:06:22;;;;;;;9.50;3.97;;;;;;;;;;5071717;28;20059;-64
2023/02/09 00:08:52;;;;;;;;;;;;;;;;;;5038794;28;20048;-64
2023/02/09 00:14:17;;;;;;;6.97;3.13;;;;;;;;;;5088060;28;20434;-64
2023/02/09 00:16:51;;;;;;;8.07;3.40;;;;;;;;;;5041281;28;20542;-64
2023/02/09 00:19:21;;;;;;;11.40;3.35;;;;;;;;;;5091592;28;20389;-64
2023/02/09 00:21:51;;;;;;;12.73;3.90;;;;;;;;;;5091364;28;20527;-64
2023/02/09 00:24:21;;;;;;;6.35;3.10;;;;;;;;;;5076211;28;20041;-65
2023/02/09 00:26:51;;;;;;;9.27;3.15;;;;;;;;;;5071295;28;20067;-65
2023/02/09 00:29:22;;;;;;;14.25;3.72;;;;;;;;;;4994882;28;20050;-64
2023/02/09 00:31:53;;;;;;;9.93;3.40;;;;;;;;;;5011797;28;20076;-64
2023/02/09 00:34:23;;;;;;;13.80;3.45;;;;;;;;;;5023070;28;20054;-65
2023/02/09 00:36:54;;;;;;;10.70;3.08;;;;;;;;;;5047550;28;20048;-65
2023/02/09 00:39:24;;;;;;;10.90;3.38;;;;;;;;;;5045507;28;20057;-65
2023/02/09 00:42:05;;;;;;;9.55;3.13;;;;;;;;;;5030765;28;20065;-65
2023/02/09 00:44:40;;;;;;;17.23;3.53;;;;;;;;;;5003673;28;20541;-65
2023/02/09 00:47:10;;;;;;;9.55;3.20;;;;;;;;;;5011076;28;20066;-64
2023/02/09 00:49:42;;;;;;;11.98;3.50;;;;;;;;;;5011041;28;20054;-64
2023/02/09 00:52:12;;;;;;;8.13;3.38;;;;;;;;;;4991272;28;20062;-65
2023/02/09 00:54:42;;;;;;;11.77;3.15;;;;;;;;;;4999591;28;20414;-64
2023/02/09 00:57:12;;;;;;;7.70;3.22;;;;;;;;;;5011013;28;20133;-64
2023/02/09 00:59:42;;;;;;;11.32;3.83;;;;;;;;;;5010350;28;20081;-65
2023/02/09 01:02:12;;;;;;;10.73;3.45;;;;;;;;;;4992317;28;20058;-64
2023/02/09 01:04:42;;;;;;;6.97;3.25;;;;;;;;;;4991347;28;20062;-64
2023/02/09 01:07:12;;;;;;;9.70;3.25;;;;;;;;;;4991169;28;20502;-65
2023/02/09 01:09:42;;;;;;;10.88;3.50;;;;;;;;;;4991048;28;20062;-64
2023/02/09 01:12:12;;;;;;;7.38;3.20;;;;;;;;;;5005651;28;20064;-65
2023/02/09 01:14:43;;;;;;;8.15;3.67;;;;;;;;;;5010626;28;20062;-65
2023/02/09 01:17:13;;;;;;;11.15;3.65;;;;;;;;;;5010731;28;20058;-64
2023/02/09 01:19:43;;;;;;;10.05;3.47;;;;;;;;;;5005647;28;20065;-65
2023/02/09 01:22:15;;;;;;;13.15;3.15;;;;;;;;;;5016942;28;20053;-64
2023/02/09 01:24:46;;;;;;;14.75;3.78;;;;;;;;;;4977745;28;20496;-64
2023/02/09 01:27:17;;;;;;;11.38;3.63;;;;;;;;;;5013770;28;20057;-65
2023/02/09 01:29:48;;;;;;;9.82;3.72;;;;;;;;;;5010538;28;20063;-64
2023/02/09 01:32:18;;;;;;;11.70;3.83;;;;;;;;;;5029445;28;20042;-64
2023/02/09 01:34:53;;;;;;;9.05;3.20;;;;;;;;;;5030018;28;20056;-65
2023/02/09 01:37:24;;;;;;;11.73;3.65;;;;;;;;;;4955140;28;20406;-65
2023/02/09 01:39:54;;;;;;;11.20;3.70;;;;;;;;;;4971278;28;20055;-64
2023/02/09 01:42:25;;;;;;;8.85;3.60;;;;;;;;;;4959442;28;20043;-64
2023/02/09 01:45:04;;;;;;;15.55;3.22;;;;;;;;;;4948679;28;20562;-64
2023/02/09 01:47:43;;;;;;;8.82;4.53;;;;;;;;;;4932593;29;20066;-64
2023/02/09 01:50:14;;;;;;;9.23;3.47;;;;;;;;;;4932765;29;20055;-65
2023/02/09 01:52:48;;;;;;;10.23;3.67;;;;;;;;;;4947889;28;20062;-64
2023/02/09 01:55:23;;;;;;;15.00;3.83;;;;;;;;;;4907784;28;20073;-65
2023/02/09 01:58:08;;;;;;;15.25;3.85;;;;;;;;;;4970552;28;20047;-65
2023/02/09 02:00:38;;;;;;;11.25;3.83;;;;;;;;;;5002247;28;20536;-65
2023/02/09 02:03:12;;;;;;;12.55;4.13;;;;;;;;;;5017779;28;20057;-64
2023/02/09 02:05:45;;;;;;;11.70;3.92;;;;;;;;;;5029546;28;20064;-64
2023/02/09 02:08:40;;;;;;;10.70;4.38;;;;;;;;;;4996981;28;20057;-64
2023/02/09 02:11:12;;;;;;;9.73;4.10;;;;;;;;;;5017465;28;20060;-64
2023/02/09 02:13:43;;;;;;;13.50;4.47;;;;;;;;;;4993276;28;20045;-65
2023/02/09 02:16:39;;;;;;;14.98;4.78;;;;;;;;;;4951208;28;20054;-65
2023/02/09 02:19:51;;;;;;;10.05;4.53;;;;;;;;;;4948716;28;20095;-64
2023/02/09 02:22:36;;;;;;;16.30;4.90;;;;;;;;;;4931907;29;20056;-65
2023/02/09 02:25:43;;;;;;;11.38;4.43;;;;;;;;;;4874874;29;20053;-64
2023/02/09 02:28:30;;;;;;;13.45;4.65;;;;;;;;;;4874861;29;20071;-64
2023/02/09 02:31:24;;;;;;;13.45;4.30;;;;;;;;;;4874939;29;20048;-65
2023/02/09 02:34:07;;;;;;;9.30;4.43;;;;;;;;;;4859408;29;20068;-65
2023/02/09 02:37:02;;;;;;;14.05;4.65;;;;;;;;;;4863585;29;20514;-64
2023/02/09 02:39:57;;;;;;;13.07;4.40;;;;;;;;;;4893940;29;20061;-64
2023/02/09 02:42:48;;;;;;;13.60;4.07;;;;;;;;;;4893771;29;20048;-65
2023/02/09 02:45:48;;;;;;;13.07;4.30;;;;;;;;;;4864023;29;20060;-65
2023/02/09 02:48:43;;;;;;;13.93;4.28;;;;;;;;;;4875219;29;20059;-65
2023/02/09 02:51:31;;;;;;;10.65;4.32;;;;;;;;;;4890703;29;20119;-65
2023/02/09 02:54:06;;;;;;;10.45;4.50;;;;;;;;;;4907142;28;20059;-64
2023/02/09 02:56:40;;;;;;;11.65;4.32;;;;;;;;;;4962346;28;20103;-64
2023/02/09 02:59:16;;;;;;;7.80;3.55;;;;;;;;;;4948631;28;20059;-65
2023/02/09 03:01:54;;;;;;;9.15;4.10;;;;;;;;;;4978315;28;20517;-65
2023/02/09 03:04:27;;;;;;;12.63;4.45;;;;;;;;;;5014273;28;20174;-65
2023/02/09 03:06:56;;;;;;;;;;;;;;;;;;5045637;28;20053;-65
2023/02/09 03:09:26;;;;;;;11.75;3.40;;;;;;;;;;5028961;28;19921;-64
2023/02/09 03:12:08;;;;;;;12.65;4.63;;;;;;;;;;5028803;28;20489;-65
2023/02/09 03:15:11;;;;;;;11.73;5.05;;;;;;;;;;5013556;28;20441;-64
2023/02/09 03:18:11;;;;;;;10.15;4.07;;;;;;;;;;4989439;28;20065;-65
2023/02/09 03:20:49;;;;;;;11.65;4.55;;;;;;;;;;5032993;28;20052;-65
2023/02/09 03:23:41;;;;;;;12.43;4.25;;;;;;;;;;5033069;28;20052;-65
2023/02/09 03:26:23;;;;;;;14.13;4.35;;;;;;;;;;4973656;28;20062;-65
2023/02/09 03:28:57;;;;;;;9.25;3.72;;;;;;;;;;4957256;28;20062;-65
2023/02/09 03:31:28;;;;;;;11.70;3.50;;;;;;;;;;4925715;28;20411;-65
2023/02/09 03:34:00;;;;;;;9.52;4.13;;;;;;;;;;4973342;28;20047;-64
2023/02/09 03:36:35;;;;;;;8.00;4.07;;;;;;;;;;4972953;28;20055;-64
2023/02/09 03:39:05;;;;;;;16.08;4.38;;;;;;;;;;4973017;28;20057;-65
2023/02/09 03:41:36;;;;;;;11.18;5.30;;;;;;;;;;4973555;28;20058;-65
2023/02/09 03:44:25;;;;;;;13.35;4.13;;;;;;;;;;4972930;28;20055;-64
2023/02/09 03:46:59;;;;;;;12.32;4.85;;;;;;;;;;4956878;28;20063;-65
2023/02/09 03:49:32;;;;;;;13.48;4.47;;;;;;;;;;4956997;28;20058;-64
2023/02/09 03:52:03;;;;;;;12.02;3.97;;;;;;;;;;4957459;28;20058;-65
2023/02/09 03:54:34;;;;;;;13.18;4.55;;;;;;;;;;4982211;28;20065;-64
2023/02/09 03:57:04;;;;;;;9.45;4.38;;;;;;;;;;5000474;28;20065;-64
2023/02/09 03:59:36;;;;;;;10.20;4.18;;;;;;;;;;5012246;28;20046;-64
2023/02/09 04:02:08;;;;;;;12.63;4.72;;;;;;;;;;5012337;28;20089;-64
2023/02/09 04:04:38;;;;;;;14.60;4.63;;;;;;;;;;5114638;28;20047;-65
2023/02/09 04:07:08;;;;;;;12.95;4.68;;;;;;;;;;5016927;28;20440;-65
2023/02/09 04:09:39;;;;;;;16.70;6.18;;;;;;;;;;5051609;28;20055;-64
2023/02/09 04:12:08;;;;;;;9.88;4.18;;;;;;;;;;5035053;28;20052;-65
2023/02/09 04:14:38;;;;;;;8.43;3.95;;;;;;;;;;5034431;28;20060;-65
2023/02/09 04:17:08;;;;;;;10.13;4.13;;;;;;;;;;5055134;28;20040;-65
2023/02/09 04:19:38;;;;;;;7.47;3.80;;;;;;;;;;5071552;28;20053;-65
2023/02/09 04:22:09;;;;;;;11.88;5.22;;;;;;;;;;5071477;28;20421;-64
2023/02/09 04:24:44;;;;;;;10.95;3.47;;;;;;;;;;5054097;28;20041;-64
2023/02/09 04:27:16;;;;;;;9.40;3.72;;;;;;;;;;5072120;28;20044;-64
2023/02/09 04:29:46;;;;;;;8.50;3.63;;;;;;;;;;5091940;28;20059;-64
2023/02/09 04:32:17;;;;;;;8.82;4.38;;;;;;;;;;5091585;28;20495;-65
2023/02/09 04:34:47;;;;;;;8.80;3.60;;;;;;;;;;5090268;28;20527;-64
2023/02/09 04:37:17;;;;;;;9.73;4.15;;;;;;;;;;5091461;28;20470;-65
2023/02/09 04:39:47;;;;;;;10.02;3.70;;;;;;;;;;5071900;28;20048;-64
2023/02/09 04:42:17;;;;;;;8.60;3.83;;;;;;;;;;5071004;28;20119;-64
2023/02/09 04:44:46;;;;;;;9.52;3.72;;;;;;;;;;5041719;28;20051;-64
2023/02/09 04:47:16;;;;;;;6.65;3.50;;;;;;;;;;5078176;28;20051;-64
2023/02/09 04:49:46;;;;;;;13.10;4.63;;;;;;;;;;5073333;28;20074;-64
2023/02/09 04:52:17;;;;;;;15.50;3.50;;;;;;;;;;5111815;28;20047;-64
2023/02/09 04:54:47;;;;;;;7.10;3.47;;;;;;;;;;5112655;28;20048;-64
2023/02/09 05:00:06;;;;;;;10.57;3.88;;;;;;;;;;5113381;28;20047;-65
2023/02/09 05:02:36;;;;;;;7.45;4.15;;;;;;;;;;5062134;28;20055;-65
2023/02/09 05:05:07;;;;;;;8.93;4.22;;;;;;;;;;5113427;28;20040;-65
2023/02/09 05:07:37;;;;;;;10.23;3.38;;;;;;;;;;5113950;28;20039;-64
2023/02/09 05:10:08;;;;;;;12.35;4.93;;;;;;;;;;5113312;28;20510;-64
2023/02/09 05:12:38;;;;;;;7.82;4.18;;;;;;;;;;5060766;28;20055;-64
2023/02/09 05:15:08;;;;;;;9.52;3.80;;;;;;;;;;5113421;28;20047;-65
2023/02/09 05:17:40;;;;;;;8.10;3.78;;;;;;;;;;5113564;28;20051;-65
2023/02/09 05:20:10;;;;;;;8.80;3.67;;;;;;;;;;5046594;28;20519;-65
2023/02/09 05:22:40;;;;;;;9.88;3.80;;;;;;;;;;5085164;28;20539;-64
2023/02/09 05:25:10;;;;;;;10.15;3.95;;;;;;;;;;5090205;28;20512;-64
2023/02/09 05:27:40;;;;;;;8.50;3.95;;;;;;;;;;5090266;28;20063;-64
2023/02/09 05:30:11;;;;;;;8.32;3.60;;;;;;;;;;5076318;28;20045;-65
2023/02/09 05:32:41;;;;;;;9.93;3.53;;;;;;;;;;5010468;28;20050;-65
2023/02/09 05:35:13;;;;;;;9.25;3.67;;;;;;;;;;5010219;28;20061;-64
2023/02/09 05:37:43;;;;;;;10.75;3.92;;;;;;;;;;4977445;28;20054;-65
2023/02/09 05:40:13;;;;;;;8.13;3.20;;;;;;;;;;5018500;28;20041;-64
2023/02/09 05:42:43;;;;;;;11.35;4.03;;;;;;;;;;5050050;28;20041;-65
2023/02/09 05:45:13;;;;;;;10.35;3.70;;;;;;;;;;5049727;28;20057;-64
2023/02/09 05:47:44;;;;;;;7.88;3.97;;;;;;;;;;5017645;28;20057;-65
2023/02/09 05:50:15;;;;;;;10.65;4.13;;;;;;;;;;5015815;28;20057;-64
2023/02/09 05:52:46;;;;;;;8.98;4.15;;;;;;;;;;5013883;28;20398;-65
2023/02/09 05:55:16;;;;;;;9.60;3.75;;;;;;;;;;4996835;28;20415;-65
2023/02/09 05:57:46;;;;;;;10.13;3.90;;;;;;;;;;5006734;28;20053;-65
2023/02/09 06:00:16;;;;;;;9.77;3.70;;;;;;;;;;5000397;28;20509;-65
2023/02/09 06:02:46;;;;;;;8.15;3.97;;;;;;;;;;5069771;28;20045;-64
2023/02/09 06:05:16;;;;;;;7.38;3.97;;;;;;;;;;5069665;28;20055;-64
2023/02/09 06:07:47;;;;;;;7.53;3.72;;;;;;;;;;5069537;28;20063;-64
2023/02/09 06:10:17;;;;;;;11.30;4.28;;;;;;;;;;5049494;28;20055;-64
2023/02/09 06:12:48;;;;;;;10.13;4.50;;;;;;;;;;5112235;28;20043;-64
2023/02/09 06:15:18;;;;;;;9.65;4.00;;;;;;;;;;5093562;28;20055;-65
2023/02/09 06:17:48;;;;;;;7.82;4.07;;;;;;;;;;5077497;28;20051;-65
2023/02/09 06:20:18;;;;;;;8.40;4.00;;;;;;;;;;5112234;28;20059;-65
2023/02/09 06:22:48;;;;;;;9.45;3.95;;;;;;;;;;5111975;28;20055;-65
2023/02/09 06:25:18;;;;;;;6.95;3.50;;;;;;;;;;5111751;28;20054;-65
2023/02/09 06:27:48;;;;;;;11.45;4.10;;;;;;;;;;5112097;28;20048;-63
2023/02/09 06:30:19;;;;;;;6.40;3.72;;;;;;;;;;5059733;28;20044;-64
2023/02/09 06:32:49;;;;;;;13.45;3.97;;;;;;;;;;5066828;28;20047;-63
2023/02/09 06:35:19;;;;;;;9.20;3.72;;;;;;;;;;5112059;28;20043;-64
2023/02/09 06:37:49;;;;;;;6.68;3.60;;;;;;;;;;5112195;28;20043;-63
2023/02/09 06:40:19;;;;;;;9.05;3.90;;;;;;;;;;5111932;28;20054;-64
2023/02/09 06:42:49;;;;;;;6.72;3.55;;;;;;;;;;5111308;28;20046;-64
2023/02/09 06:45:19;;;;;;;10.38;4.55;;;;;;;;;;5089055;28;20048;-63
2023/02/09 06:47:49;;;;;;;9.85;3.58;;;;;;;;;;5088786;28;20063;-64
2023/02/09 06:50:19;;;;;;;7.55;4.03;;;;;;;;;;5088658;28;20055;-64
2023/02/09 06:52:50;;;;;;;10.23;3.65;;;;;;;;;;5059617;28;20059;-63
2023/02/09 06:55:20;;;;;;;8.93;3.65;;;;;;;;;;5088503;28;20508;-63
2023/02/09 06:57:50;;;;;;;9.23;3.60;;;;;;;;;;5071028;28;20067;-64
2023/02/09 07:00:20;;;;;;;9.20;4.20;;;;;;;;;;5055890;28;20087;-63
2023/02/09 07:02:51;;;;;;;7.50;3.90;;;;;;;;;;5086700;28;20059;-64
2023/02/09 07:05:21;;;;;;;10.38;3.55;;;;;;;;;;5052192;28;20534;-63
2023/02/09 07:07:51;;;;;;;8.73;3.75;;;;;;;;;;5048308;28;20056;-63
2023/02/09 07:10:21;;;;;;;8.23;3.58;;;;;;;;;;5048736;28;20052;-63
2023/02/09 07:12:51;;;;;;;7.57;3.50;;;;;;;;;;5048670;28;20060;-64
2023/02/09 07:15:21;;;;;;;6.85;3.45;;;;;;;;;;5032340;28;20060;-63
2023/02/09 07:17:52;;;;;;;9.13;4.10;;;;;;;;;;5015305;28;20049;-64
2023/02/09 07:20:22;;;;;;;11.75;4.30;;;;;;;;;;5048588;28;20057;-63
2023/02/09 07:22:52;;;;;;;10.73;4.57;;;;;;;;;;5048442;28;20102;-64
2023/02/09 07:25:22;;;;;;;10.05;4.60;;;;;;;;;;4972522;28;20085;-64
2023/02/09 07:27:52;;;;;;;15.82;4.93;;;;;;;;;;4960192;28;20095;-63
2023/02/09 07:30:22;;;;;;;10.57;4.80;;;;;;;;;;4934075;29;20087;-63
2023/02/09 07:32:52;;;;;;;10.35;5.43;;;;;;;;;;4959438;28;20066;-63
2023/02/09 07:35:22;;;;;;;9.18;5.25;;;;;;;;;;4968237;28;20442;-64
2023/02/09 07:37:52;;;;;;;14.07;5.07;;;;;;;;;;4951896;28;20059;-64
2023/02/09 07:40:22;;;;;;;9.55;4.53;;;;;;;;;;4950629;29;20054;-63
2023/02/09 07:42:52;;;;;;;10.13;4.57;;;;;;;;;;4950361;29;20079;-63
2023/02/09 07:45:22;;;;;;;14.15;5.35;;;;;;;;;;4961869;28;20057;-63
2023/02/09 07:47:52;;;;;;;15.25;5.03;;;;;;;;;;4988871;28;20066;-63
2023/02/09 07:50:22;;;;;;;11.75;5.32;;;;;;;;;;4950219;28;20407;-64
2023/02/09 07:52:55;;;;;;;10.38;5.50;;;;;;;;;;4918746;28;20539;-63
2023/02/09 07:55:25;;;;;;;9.57;5.60;;;;;;;;;;4949923;28;20419;-64
2023/02/09 07:57:55;;;;;;;11.75;5.00;;;;;;;;;;4950693;28;20062;-64
2023/02/09 08:00:25;;;;;;;10.98;5.78;;;;;;;;;;4950252;28;20087;-63
2023/02/09 08:02:59;;;;;;;12.77;6.28;;;;;;;;;;4965636;28;20057;-64
2023/02/09 08:05:37;;;;;;;13.13;5.93;;;;;;;;;;4961266;28;20529;-64
2023/02/09 08:08:08;;;;;;;15.25;6.15;;;;;;;;;;5041519;28;20063;-64
2023/02/09 08:10:39;;;;;;;11.60;5.72;;;;;;;;;;5038042;28;20688;-64
2023/02/09 08:13:10;;;;;;;10.30;5.07;;;;;;;;;;5038016;28;20488;-64
2023/02/09 08:15:46;;;;;;;13.38;5.45;;;;;;;;;;4994779;28;20554;-64
2023/02/09 08:18:28;;;;;;;11.35;5.38;;;;;;;;;;5011729;28;20061;-64
2023/02/09 08:20:58;;;;;;;11.80;4.93;;;;;;;;;;5011430;28;20065;-64
2023/02/09 08:23:31;;;;;;;9.23;4.28;;;;;;;;;;5011579;28;20054;-64
2023/02/09 08:26:07;;;;;;;10.90;4.82;;;;;;;;;;4995202;28;20588;-64
2023/02/09 08:28:42;;;;;;;12.63;5.30;;;;;;;;;;4962822;28;20066;-64
2023/02/09 08:31:18;;;;;;;13.82;6.22;;;;;;;;;;5011542;28;20441;-64
2023/02/09 08:33:49;;;;;;;12.57;5.70;;;;;;;;;;5011388;28;20073;-64
2023/02/09 08:36:20;;;;;;;11.43;4.90;;;;;;;;;;5011112;28;20064;-64
2023/02/09 08:38:50;;;;;;;10.27;5.47;;;;;;;;;;5011921;28;20068;-64
2023/02/09 08:41:20;;;;;;;11.88;5.07;;;;;;;;;;5031309;28;20053;-64
2023/02/09 08:43:50;;;;;;;11.63;5.35;;;;;;;;;;4997940;28;20053;-64
2023/02/09 08:46:20;;;;;;;15.75;4.72;;;;;;;;;;4982703;28;20045;-64
2023/02/09 08:48:52;;;;;;;9.60;4.60;;;;;;;;;;4950915;28;20058;-63
2023/02/09 08:51:22;;;;;;;8.13;4.40;;;;;;;;;;4998410;28;20057;-64
2023/02/09 08:53:52;;;;;;;10.93;4.63;;;;;;;;;;5045541;28;20555;-65
2023/02/09 08:56:22;;;;;;;8.55;4.78;;;;;;;;;;5001812;28;20049;-64
2023/02/09 08:58:52;;;;;;;11.20;4.50;;;;;;;;;;5022015;28;20059;-64
2023/02/09 09:01:22;;;;;;;10.38;4.93;;;;;;;;;;5097003;28;20055;-64
2023/02/09 09:03:52;;;;;;;9.63;4.85;;;;;;;;;;5113624;28;20471;-64
2023/02/09 09:06:25;;;;;;;9.27;4.72;;;;;;;;;;5113656;28;20051;-65
2023/02/09 09:08:55;;;;;;;13.68;4.72;;;;;;;;;;5112845;28;20036;-64
2023/02/09 09:11:25;;;;;;;9.65;4.65;;;;;;;;;;5057493;28;20048;-64
2023/02/09 09:13:56;;;;;;;12.52;4.45;;;;;;;;;;5093079;28;20055;-64
2023/02/09 09:16:26;;;;;;;8.93;3.75;;;;;;;;;;5093107;28;20047;-65
2023/02/09 09:18:57;;;;;;;9.10;3.72;;;;;;;;;;5106198;28;20415;-64
2023/02/09 09:21:27;;;;;;;9.38;4.50;;;;;;;;;;5093429;28;20055;-64
2023/02/09 09:23:57;;;;;;;6.85;4.07;;;;;;;;;;5060411;28;20517;-64
2023/02/09 09:26:27;;;;;;;12.65;4.40;;;;;;;;;;5094468;28;20074;-65
2023/02/09 09:28:57;;;;;;;8.57;3.92;;;;;;;;;;5103520;28;20077;-65
2023/02/09 09:31:27;;;;;;;11.15;4.20;;;;;;;;;;5113140;28;20039;-64
2023/02/09 09:33:58;;;;;;;6.60;3.85;;;;;;;;;;5112866;28;20510;-65
2023/02/09 09:36:29;;;;;;;9.82;4.20;;;;;;;;;;5077209;28;20062;-65
2023/02/09 09:39:01;;;;;;;9.23;4.10;;;;;;;;;;5064967;28;20044;-65
2023/02/09 09:41:36;;;;;;;12.55;4.63;;;;;;;;;;5113081;28;20398;-64
2023/02/09 09:44:22;;;;;;;10.07;4.60;;;;;;;;;;5093968;28;20057;-64
2023/02/09 09:46:53;;;;;;;8.52;4.43;;;;;;;;;;5093931;28;20066;-64
2023/02/09 09:49:26;;;;;;;8.18;4.25;;;;;;;;;;5111603;28;20043;-64
2023/02/09 09:51:59;;;;;;;;;;;;;;;;;;5113470;28;20075;-65
2023/02/09 09:54:33;;;;;;;11.38;4.78;;;;;;;;;;5076979;28;19920;-64
2023/02/09 09:57:10;;;;;;;10.60;5.10;;;;;;;;;;5076791;28;20052;-65
2023/02/09 09:59:41;;;;;;;11.10;4.63;;;;;;;;;;5112548;28;20050;-64
2023/02/09 10:02:28;;;;;;;10.85;4.80;;;;;;;;;;5112233;28;20058;-65
2023/02/09 10:05:22;;;;;;;10.52;4.38;;;;;;;;;;5112636;28;20043;-65
2023/02/09 10:08:04;;;;;;;8.98;4.40;;;;;;;;;;5112808;28;20042;-64
2023/02/09 10:10:44;;;;;;;11.85;4.50;;;;;;;;;;5112171;28;20392;-64
2023/02/09 10:13:36;;;;;;;10.27;5.00;;;;;;;;;;5076740;28;20442;-65
2023/02/09 10:16:15;;;;;;;12.10;4.38;;;;;;;;;;5059469;28;20054;-64
2023/02/09 10:18:50;;;;;;;12.38;4.63;;;;;;;;;;5112397;28;20044;-65
2023/02/09 10:21:23;;;;;;;12.50;5.47;;;;;;;;;;5112075;28;20046;-65
2023/02/09 10:24:20;;;;;;;12.98;5.60;;;;;;;;;;5109461;28;20058;-65
2023/02/09 10:27:18;;;;;;;14.57;6.07;;;;;;;;;;5109748;28;20066;-65
2023/02/09 10:29:49;;;;;;;16.17;5.47;;;;;;;;;;5076088;28;20625;-65
2023/02/09 10:32:24;;;;;;;15.25;4.45;;;;;;;;;;5054622;28;20048;-64
2023/02/09 10:34:56;;;;;;;11.70;4.50;;;;;;;;;;5089093;28;20048;-65
2023/02/09 10:37:33;;;;;;;11.52;4.53;;;;;;;;;;5089207;28;20048;-65
2023/02/09 10:40:16;;;;;;;11.25;4.82;;;;;;;;;;5055636;28;20048;-65
2023/02/09 10:43:17;;;;;;;11.63;4.90;;;;;;;;;;5048074;28;20067;-65
2023/02/09 10:45:55;;;;;;;11.43;4.88;;;;;;;;;;5048692;28;20128;-65
2023/02/09 10:48:27;;;;;;;12.35;5.90;;;;;;;;;;5048810;28;20064;-65
2023/02/09 10:51:12;;;;;;;13.38;5.10;;;;;;;;;;5047084;28;20045;-65
2023/02/09 10:54:04;;;;;;;11.10;5.63;;;;;;;;;;4941006;28;20046;-65
2023/02/09 10:56:46;;;;;;;11.40;5.75;;;;;;;;;;4957168;28;20050;-66
2023/02/09 10:59:23;;;;;;;17.50;5.10;;;;;;;;;;4972974;28;20054;-65
2023/02/09 11:02:00;;;;;;;12.80;5.30;;;;;;;;;;4989712;28;20054;-66
2023/02/09 11:04:39;;;;;;;10.43;4.82;;;;;;;;;;4973345;28;20057;-66
2023/02/09 11:07:17;;;;;;;15.23;5.07;;;;;;;;;;4989521;28;20057;-65
2023/02/09 11:09:50;;;;;;;12.77;5.47;;;;;;;;;;4989281;28;20065;-65
2023/02/09 11:12:21;;;;;;;11.50;5.15;;;;;;;;;;4995862;28;20061;-66
2023/02/09 11:14:52;;;;;;;15.25;5.45;;;;;;;;;;4993064;28;20054;-65
2023/02/09 11:17:25;;;;;;;14.88;5.45;;;;;;;;;;4992435;28;20054;-66
2023/02/09 11:20:30;;;;;;;13.52;5.28;;;;;;;;;;5027813;28;20408;-65
2023/02/09 11:23:31;;;;;;;11.75;4.65;;;;;;;;;;5067181;28;20051;-66
2023/02/09 11:26:44;;;;;;;10.65;4.20;;;;;;;;;;5110832;28;20056;-65
2023/02/09 11:29:29;;;;;;;10.63;4.70;;;;;;;;;;5048283;28;20052;-65
2023/02/09 11:32:07;;;;;;;12.05;5.40;;;;;;;;;;5048441;28;20057;-66
2023/02/09 11:34:59;;;;;;;12.20;5.10;;;;;;;;;;5043184;28;20061;-66
2023/02/09 11:37:40;;;;;;;11.82;4.88;;;;;;;;;;4979734;28;20133;-65
2023/02/09 11:40:29;;;;;;;10.63;4.97;;;;;;;;;;5028365;28;20065;-65
2023/02/09 11:43:20;;;;;;;7.40;4.70;;;;;;;;;;5028481;28;20049;-66
2023/02/09 11:45:55;;;;;;;10.23;4.70;;;;;;;;;;5032010;28;20061;-65
2023/02/09 11:48:31;;;;;;;12.85;5.28;;;;;;;;;;4999474;28;20057;-65
2023/02/09 11:51:14;;;;;;;9.30;5.00;;;;;;;;;;5032325;28;20045;-65
2023/02/09 11:54:03;;;;;;;11.43;4.82;;;;;;;;;;4999607;28;20057;-66
2023/02/09 11:56:38;;;;;;;8.23;4.35;;;;;;;;;;4985028;28;20061;-66
2023/02/09 11:59:40;;;;;;;11.85;4.00;;;;;;;;;;4995785;28;20050;-66
2023/02/09 12:02:14;;;;;;;9.07;4.13;;;;;;;;;;5012081;28;20053;-67
2023/02/09 12:04:53;;;;;;;11.18;4.65;;;;;;;;;;5008789;28;20059;-66
2023/02/09 12:07:47;;;;;;;10.88;4.63;;;;;;;;;;5078227;28;20064;-66
2023/02/09 12:10:17;;;;;;;9.30;4.55;;;;;;;;;;5091755;28;20376;-66
2023/02/09 12:12:57;;;;;;;9.05;5.00;;;;;;;;;;5091891;28;20060;-67
2023/02/09 12:15:39;;;;;;;10.35;4.50;;;;;;;;;;5091703;28;20052;-66
2023/02/09 12:18:22;;;;;;;9.77;5.53;;;;;;;;;;5071388;28;20053;-66
2023/02/09 12:20:57;;;;;;;13.05;5.90;;;;;;;;;;5038448;28;20095;-65
2023/02/09 12:23:34;;;;;;;11.85;5.63;;;;;;;;;;5071646;28;20048;-66
2023/02/09 12:26:16;;;;;;;13.30;5.50;;;;;;;;;;5073065;28;20624;-66
2023/02/09 12:29:15;;;;;;;12.52;5.50;;;;;;;;;;5091712;28;20055;-66
2023/02/09 12:32:04;;;;;;;15.77;6.53;;;;;;;;;;5074617;28;20819;-67
2023/02/09 12:34:34;;;;;;;12.27;6.55;;;;;;;;;;5057659;28;20159;-66
2023/02/09 12:37:13;;;;;;;12.07;4.50;;;;;;;;;;5091337;28;20064;-67
2023/02/09 12:40:22;;;;;;;8.48;4.78;;;;;;;;;;5091139;28;20051;-65
2023/02/09 12:42:52;;;;;;;10.32;5.00;;;;;;;;;;5108506;28;20510;-66
2023/02/09 12:45:33;;;;;;;9.02;4.43;;;;;;;;;;5093696;28;20044;-66
2023/02/09 12:48:14;;;;;;;8.60;4.10;;;;;;;;;;5083518;28;20052;-65
2023/02/09 12:50:53;;;;;;;6.65;3.95;;;;;;;;;;5076752;28;20044;-66
2023/02/09 12:53:23;;;;;;;9.75;4.85;;;;;;;;;;5073570;28;20045;-66
2023/02/09 12:56:03;;;;;;;7.97;3.58;;;;;;;;;;5069985;28;20052;-68
2023/02/09 12:58:37;;;;;;;6.80;3.25;;;;;;;;;;5073517;28;20040;-67
2023/02/09 13:01:07;;;;;;;6.60;3.10;;;;;;;;;;5090562;28;20040;-67
2023/02/09 13:03:56;;;;;;;10.27;3.90;;;;;;;;;;5092217;28;20400;-66
2023/02/09 13:06:46;;;;;;;6.88;3.13;;;;;;;;;;5057846;28;20551;-66
2023/02/09 13:09:38;;;;;;;8.38;3.50;;;;;;;;;;5093490;28;20415;-66
2023/02/09 13:12:22;;;;;;;5.57;2.90;;;;;;;;;;5072970;28;20055;-66
2023/02/09 13:14:52;;;;;;;6.45;3.13;;;;;;;;;;5072811;28;20048;-66
2023/02/09 13:17:50;;;;;;;7.43;3.40;;;;;;;;;;5073260;28;20049;-66
2023/02/09 13:20:45;;;;;;;4.28;2.70;;;;;;;;;;5010956;28;20058;-67
2023/02/09 13:23:27;;;;;;;5.50;2.80;;;;;;;;;;4977914;28;20065;-66
2023/02/09 13:26:13;;;;;;;4.05;2.45;;;;;;;;;;4978106;28;20046;-66
2023/02/09 13:28:43;;;;;;;3.95;2.30;;;;;;;;;;5010535;28;20097;-66
2023/02/09 13:31:38;;;;;;;4.28;2.38;;;;;;;;;;5017733;28;20065;-66
2023/02/09 13:34:35;;;;;;;3.42;1.77;;;;;;;;;;4981257;28;20057;-67
2023/02/09 13:37:36;;;;;;;8.27;2.78;;;;;;;;;;4994363;28;20506;-65
2023/02/09 13:40:24;;;;;;;7.45;1.95;;;;;;;;;;5010231;28;20151;-67
2023/02/09 13:43:00;;;;;;;3.67;1.80;;;;;;;;;;4989134;28;20065;-66
2023/02/09 13:45:31;;;;;;;6.85;2.20;;;;;;;;;;4978563;28;20053;-67
2023/02/09 13:48:12;;;;;;;4.03;1.90;;;;;;;;;;4942762;28;20426;-69
2023/02/09 13:50:47;;;;;;;4.43;1.70;;;;;;;;;;4990720;28;20062;-68
2023/02/09 13:53:19;;;;;;;4.68;1.92;;;;;;;;;;4942141;28;20055;-65
2023/02/09 13:55:54;;;;;;;3.83;1.90;;;;;;;;;;4955147;28;20062;-66
2023/02/09 13:58:27;;;;;;;2.40;1.50;;;;;;;;;;5026999;28;20552;-66
2023/02/09 14:01:11;;;;;;;3.58;1.45;;;;;;;;;;4980754;28;20565;-66
2023/02/09 14:03:58;;;;;;;3.88;1.88;;;;;;;;;;5029669;28;20537;-66
2023/02/09 14:06:43;;;;;;;4.50;1.90;;;;;;;;;;5005315;28;20046;-66
2023/02/09 14:09:23;;;;;;;4.68;1.92;;;;;;;;;;4977274;28;20065;-67
2023/02/09 14:12:00;;;;;;;3.05;1.70;;;;;;;;;;5009548;28;20057;-67
2023/02/09 14:17:28;;;;;;;4.45;1.83;;;;;;;;;;5067974;28;20064;-66
2023/02/09 14:19:59;;;;;;;4.05;1.70;;;;;;;;;;5050673;28;20063;-65
2023/02/09 14:22:38;;;;;;;3.65;1.90;;;;;;;;;;5019709;28;20053;-64
2023/02/09 14:25:14;;;;;;;5.35;1.95;;;;;;;;;;5069082;28;20057;-64
2023/02/09 14:27:48;;;;;;;3.08;1.75;;;;;;;;;;5048862;28;20064;-64
2023/02/09 14:30:19;;;;;;;3.80;1.77;;;;;;;;;;5001247;28;20437;-65
2023/02/09 14:32:54;;;;;;;4.40;2.00;;;;;;;;;;5009545;28;20053;-65
2023/02/09 14:35:27;;;;;;;2.70;1.50;;;;;;;;;;5009016;28;20054;-64
2023/02/09 14:38:00;;;;;;;6.85;1.90;;;;;;;;;;5009341;28;20058;-64
2023/02/09 14:40:36;;;;;;;5.53;1.52;;;;;;;;;;5028178;28;20085;-64
2023/02/09 14:43:08;;;;;;;3.47;1.63;;;;;;;;;;4987676;28;20045;-65
2023/02/09 14:45:45;;;;;;;5.60;1.75;;;;;;;;;;5089067;28;20715;-64
2023/02/09 14:48:21;;;;;;;4.82;1.63;;;;;;;;;;5038932;28;20814;-64
2023/02/09 14:51:09;;;;;;;3.67;1.50;;;;;;;;;;5062304;28;20072;-64
2023/02/09 14:53:42;;;;;;;3.00;1.75;;;;;;;;;;5015480;28;20041;-63
2023/02/09 14:56:28;;;;;;;4.20;1.90;;;;;;;;;;5048969;28;20409;-64
2023/02/09 14:58:58;;;;;;;3.65;1.70;;;;;;;;;;5048446;28;20053;-64
2023/02/09 15:01:29;;;;;;;3.33;1.60;;;;;;;;;;5048229;28;20578;-64
2023/02/09 15:03:59;;;;;;;4.05;1.83;;;;;;;;;;5008855;28;20194;-64
2023/02/09 15:06:33;;;;;;;3.90;1.77;;;;;;;;;;4979548;28;20053;-65
2023/02/09 15:09:04;;;;;;;6.03;2.15;;;;;;;;;;5028664;28;20074;-65
2023/02/09 15:14:25;;;;;;;4.78;1.75;;;;;;;;;;5028675;28;20068;-65
2023/02/09 15:16:55;;;;;;;4.10;2.17;;;;;;;;;;5012004;28;20060;-65
2023/02/09 15:19:25;;;;;;;3.58;1.75;;;;;;;;;;5013477;28;20058;-65
2023/02/09 15:21:55;;;;;;;3.03;1.75;;;;;;;;;;5012391;28;20477;-65
2023/02/09 15:24:35;;;;;;;3.45;1.92;;;;;;;;;;5012699;28;20069;-67
2023/02/09 15:27:10;;;;;;;6.00;3.05;;;;;;;;;;5013194;28;20050;-66
2023/02/09 15:29:40;;;;;;;5.90;2.80;;;;;;;;;;4975505;28;20065;-67
2023/02/09 15:32:15;;;;;;;10.30;2.88;;;;;;;;;;4990453;28;20087;-67
2023/02/09 15:34:47;;;;;;;7.70;3.35;;;;;;;;;;5052644;28;20459;-66
2023/02/09 15:37:26;;;;;;;10.68;3.72;;;;;;;;;;5035531;28;20523;-66
2023/02/09 15:40:00;;;;;;;8.68;4.28;;;;;;;;;;5015671;28;20053;-66